Impacts METAR Board
IDs:

KEWR - Newark Intl, NJ, US

Updated at: 2100 UTC 08 Feb 2023
Potential Impact None Slight Moderate High
Time 08/09Z 08/10Z 08/11Z 08/12Z 08/13Z 08/14Z 08/15Z 08/16Z 08/17Z 08/18Z 08/19Z 08/20Z 08/21Z
Temp35 37 37 39 40 47 49 51 52 53 55 56 56
Dewpt31 32 32 32 33 36 33 30 29 29 26 25 24
Altim30.08 30.09 30.11 30.13 30.15 30.18 30.21 30.23 30.22 30.20 30.18 30.20 30.22
VIS10 10 9 9 10 10 10 10 10 10 10 10 10
CIG-- -- -- -- -- -- -- -- -- -- -- -- --
CoverSCTFEWFEWSCTFEWSCTSCTSCTFEWFEWFEWFEWFEW
FltCatVFRVFRVFRVFRVFRVFRVFRVFRVFRVFRVFRVFRVFR
WX--------------------------
WDir210220290290250320300310310330270280270
WSpd7 7 3 3 4 7 10 11 10 9 8 7 11
WGst-- -- -- -- -- -- 19 -- 18 15 16 -- 22
Raw hourly METARs
KEWR 080851Z 21007KT 10SM FEW170 SCT250 02/M01 A3008 RMK AO2 SLP185 T00171006 58005
KEWR 080951Z 22007KT 10SM FEW180 FEW250 03/00 A3009 RMK AO2 SLP189 T00280000
KEWR 081051Z 29003KT 9SM FEW180 FEW250 03/00 A3011 RMK AO2 SLP195 T00280000
KEWR 081151Z 29003KT 9SM SCT045 SCT250 04/00 A3013 RMK AO2 SLP200 70001 T00390000 10044 20017 53015
KEWR 081251Z 25004KT 10SM FEW045 FEW250 04/01 A3015 RMK AO2 SLP208 T00440006
KEWR 081351Z 32007KT 10SM FEW042 SCT250 08/02 A3018 RMK AO2 SLP220 T00830022
KEWR 081451Z 30010G19KT 10SM SCT045 09/01 A3021 RMK AO2 SLP228 T00940006 51027
KEWR 081551Z 31011KT 10SM SCT043 11/M01 A3023 RMK AO2 SLP235 T01061011
KEWR 081651Z 31010G18KT 10SM FEW045 11/M02 A3022 RMK AO2 SLP233 T01111017
KEWR 081751Z 33009G15KT 10SM FEW045 FEW250 12/M02 A3020 RMK AO2 SLP227 T01171017 10117 20022 58001 $
KEWR 081851Z 27008G16KT 10SM FEW250 13/M03 A3018 RMK AO2 SLP218 T01281033
KEWR 081951Z 28007KT 10SM FEW250 13/M04 A3020 RMK AO2 SLP224 T01331039
KEWR 082051Z 27011G22KT 10SM FEW250 13/M04 A3022 RMK AO2 SLP233 T01331044 53006



Page loaded:  21:02 UTC  |   01:02 PM Pacific  |   02:02 PM Mountain  |   03:02 PM Central  |   04:02 PM Eastern

 

ADVISORIES

FORECASTS

FORECASTS

OBSERVATIONS

USER TOOLS

ABOUT US